createdAt,value
2023-12-14T00:01:36.788Z,97326.77
2023-12-14T00:04:10.835Z,97326.48
2023-12-14T00:06:44.208Z,97327.77
2023-12-14T00:09:17.587Z,97329.61
2023-12-14T00:11:50.936Z,97330.81
2023-12-14T00:14:24.432Z,97330.52
2023-12-14T00:17:00.203Z,97334.52
2023-12-14T00:19:33.742Z,97341.54
2023-12-14T00:22:07.364Z,97344.67
2023-12-14T00:24:40.702Z,97350.48
2023-12-14T00:27:14.024Z,97354.98
2023-12-14T00:29:47.324Z,97365.73
2023-12-14T00:32:20.618Z,97362.09
2023-12-14T00:34:54.136Z,97370.71
2023-12-14T00:37:27.516Z,97376.21
2023-12-14T00:40:01.217Z,97381.34
2023-12-14T00:42:34.912Z,97383.38
2023-12-14T00:45:10.655Z,97390.50
2023-12-14T00:47:44.037Z,97391.23
2023-12-14T00:50:17.479Z,97396.94
2023-12-14T00:52:51.005Z,97397.32
2023-12-14T00:55:24.372Z,97399.42
2023-12-14T00:57:57.713Z,97403.13
2023-12-14T01:00:32.236Z,97404.29
2023-12-14T01:03:05.836Z,97407.13
2023-12-14T01:05:39.481Z,97408.39
2023-12-14T01:08:13.011Z,97406.30
2023-12-14T01:10:46.685Z,97408.49
2023-12-14T01:13:20.179Z,97411.35
2023-12-14T01:15:53.572Z,97413.41
2023-12-14T01:18:27.229Z,97413.59
2023-12-14T01:21:00.726Z,97416.29
2023-12-14T01:23:34.087Z,97416.77
2023-12-14T01:26:08.373Z,97416.91
2023-12-14T01:28:41.925Z,97414.54
2023-12-14T01:31:15.423Z,97416.02
2023-12-14T01:33:48.959Z,97415.06
2023-12-14T01:36:27.264Z,97413.84
2023-12-14T01:39:00.608Z,97418.64
2023-12-14T01:41:34.075Z,97416.13
2023-12-14T01:44:07.928Z,97414.79
2023-12-14T01:46:41.531Z,97413.35
2023-12-14T01:49:14.950Z,97412.40
2023-12-14T01:51:48.347Z,97411.55
2023-12-14T01:54:21.799Z,97409.09
2023-12-14T01:56:56.084Z,97411.54
2023-12-14T01:59:29.506Z,97409.48
2023-12-14T02:02:04.144Z,97410.04
2023-12-14T02:04:38.737Z,97409.80
2023-12-14T02:07:12.255Z,97413.38
2023-12-14T02:09:45.626Z,97408.32
2023-12-14T02:12:19.690Z,97406.51
2023-12-14T02:14:54.937Z,97407.86
2023-12-14T02:17:28.269Z,97408.74
2023-12-14T02:20:01.947Z,97405.48
2023-12-14T02:22:52.454Z,97405.56
2023-12-14T02:25:26.818Z,97402.58
2023-12-14T02:28:00.211Z,97404.92
2023-12-14T02:30:33.736Z,97408.56
2023-12-14T02:33:07.327Z,97411.64
2023-12-14T02:35:40.894Z,97415.48
2023-12-14T02:38:14.513Z,97417.21
2023-12-14T02:40:48.651Z,97420.26
2023-12-14T02:43:22.042Z,97426.42
2023-12-14T02:45:56.529Z,97430.85
2023-12-14T02:48:30.638Z,97432.44
2023-12-14T02:51:04.631Z,97438.35
2023-12-14T02:53:38.136Z,97440.40
2023-12-14T02:56:13.434Z,97436.98
2023-12-14T02:58:50.466Z,97439.77
2023-12-14T03:01:25.216Z,97440.34
2023-12-14T03:03:58.611Z,97443.73
2023-12-14T03:06:32.064Z,97443.41
2023-12-14T03:09:05.503Z,97443.25
2023-12-14T03:11:38.880Z,97451.39
2023-12-14T03:14:12.462Z,97455.30
2023-12-14T03:16:45.904Z,97455.99
2023-12-14T03:19:19.408Z,97464.29
2023-12-14T03:21:52.923Z,97466.70
2023-12-14T03:24:26.487Z,97469.36
2023-12-14T03:26:59.880Z,97468.10
2023-12-14T03:29:33.749Z,97470.58
2023-12-14T03:32:08.065Z,97473.20
2023-12-14T03:34:42.002Z,97478.05
2023-12-14T03:37:15.436Z,97481.61
2023-12-14T03:39:48.724Z,97485.09
2023-12-14T03:42:22.521Z,97490.61
2023-12-14T03:44:55.864Z,97496.95
2023-12-14T03:47:29.303Z,97499.15
2023-12-14T03:50:02.671Z,97503.66
2023-12-14T03:52:36.291Z,97507.69
2023-12-14T03:55:11.899Z,97510.21
2023-12-14T03:57:45.380Z,97507.52
2023-12-14T04:00:20.514Z,97519.21
2023-12-14T04:02:54.060Z,97519.54
2023-12-14T04:05:28.059Z,97527.92
2023-12-14T04:08:01.453Z,97533.93
2023-12-14T04:10:34.945Z,97536.93
2023-12-14T04:13:08.425Z,97537.64
2023-12-14T04:15:41.860Z,97535.50
2023-12-14T04:18:15.627Z,97541.91
2023-12-14T04:20:49.660Z,97548.22
2023-12-14T04:23:23.385Z,97551.89
2023-12-14T04:25:57.188Z,97556.04
2023-12-14T04:28:30.607Z,97556.37
2023-12-14T04:31:04.255Z,97558.58
2023-12-14T04:33:37.588Z,97565.45
2023-12-14T04:36:12.334Z,97569.65
2023-12-14T04:38:47.510Z,97572.25
2023-12-14T04:41:21.176Z,97574.63
2023-12-14T04:43:55.171Z,97580.89
2023-12-14T04:46:28.559Z,97586.88
2023-12-14T04:49:01.972Z,97586.25
2023-12-14T04:51:35.417Z,97587.05
2023-12-14T04:54:09.103Z,97587.63
2023-12-14T04:56:42.755Z,97586.20
2023-12-14T04:59:16.174Z,97588.52
2023-12-14T05:01:49.558Z,97594.75
2023-12-14T05:04:22.880Z,97593.94
2023-12-14T05:06:56.410Z,97604.20
2023-12-14T05:09:30.183Z,97608.30
2023-12-14T05:12:03.591Z,97610.59
2023-12-14T05:14:37.026Z,97612.44
2023-12-14T05:17:10.760Z,97620.58
2023-12-14T05:19:44.408Z,97622.95
2023-12-14T05:22:17.801Z,97628.79
2023-12-14T05:24:51.855Z,97625.62
2023-12-14T05:27:26.018Z,97631.17
2023-12-14T05:29:59.375Z,97631.81
2023-12-14T05:32:33.519Z,97634.77
2023-12-14T05:35:08.639Z,97641.51
2023-12-14T05:37:43.939Z,97643.88
2023-12-14T05:40:18.325Z,97644.63
2023-12-14T05:42:51.716Z,97649.67
2023-12-14T05:45:25.096Z,97652.92
2023-12-14T05:47:58.489Z,97658.13
2023-12-14T05:50:31.976Z,97661.11
2023-12-14T05:53:05.548Z,97668.15
2023-12-14T05:55:40.705Z,97672.67
2023-12-14T05:58:14.025Z,97678.30
2023-12-14T06:00:47.458Z,97683.33
2023-12-14T06:03:21.114Z,97679.27
2023-12-14T06:05:54.648Z,97682.77
2023-12-14T06:08:28.118Z,97688.27
2023-12-14T06:11:02.783Z,97691.70
2023-12-14T06:13:36.692Z,97696.35
2023-12-14T06:16:14.200Z,97694.60
2023-12-14T06:18:48.124Z,97700.40
2023-12-14T06:21:21.678Z,97703.34
2023-12-14T06:23:55.281Z,97708.25
2023-12-14T06:26:29.316Z,97712.84
2023-12-14T06:29:02.938Z,97710.67
2023-12-14T06:31:36.416Z,97719.05
2023-12-14T06:34:10.377Z,97724.69
2023-12-14T06:36:47.418Z,97725.00
2023-12-14T06:39:20.999Z,97729.12
2023-12-14T06:41:57.657Z,97728.94
2023-12-14T06:44:32.516Z,97736.45
2023-12-14T06:47:07.537Z,97742.71
2023-12-14T06:49:42.218Z,97745.75
2023-12-14T06:52:15.695Z,97748.17
2023-12-14T06:54:49.107Z,97751.67
2023-12-14T06:57:24.677Z,97754.27
2023-12-14T06:59:58.928Z,97757.02
2023-12-14T07:02:32.389Z,97760.73
2023-12-14T07:05:06.689Z,97761.98
2023-12-14T07:07:40.203Z,97763.00
2023-12-14T07:10:14.106Z,97762.38
2023-12-14T07:12:47.871Z,97761.67
2023-12-14T07:15:21.540Z,97761.03
2023-12-14T07:17:55.193Z,97766.39
2023-12-14T07:20:28.729Z,97771.58
2023-12-14T07:23:02.412Z,97776.27
2023-12-14T07:25:35.835Z,97782.03
2023-12-14T07:28:09.452Z,97783.53
2023-12-14T07:30:42.896Z,97787.30
2023-12-14T07:33:16.387Z,97794.48
2023-12-14T07:35:49.747Z,97796.54
2023-12-14T07:38:23.134Z,97800.48
2023-12-14T07:40:56.504Z,97803.48
2023-12-14T07:43:29.933Z,97808.60
2023-12-14T07:46:04.024Z,97816.98
2023-12-14T07:48:37.577Z,97825.19
2023-12-14T07:51:11.271Z,97827.46
2023-12-14T07:53:44.679Z,97836.16
2023-12-14T07:56:18.044Z,97838.95
2023-12-14T07:58:51.750Z,97843.00
2023-12-14T08:01:25.274Z,97845.84
2023-12-14T08:03:58.769Z,97849.74
2023-12-14T08:06:32.284Z,97851.16
2023-12-14T08:09:06.800Z,97852.13
2023-12-14T08:11:40.416Z,97860.16
2023-12-14T08:14:14.034Z,97864.60
2023-12-14T08:16:47.406Z,97867.92
2023-12-14T08:19:20.877Z,97870.25
2023-12-14T08:21:54.421Z,97871.30
2023-12-14T08:24:27.915Z,97872.61
2023-12-14T08:27:01.267Z,97878.50
2023-12-14T08:29:34.625Z,97880.26
2023-12-14T08:32:09.228Z,97884.44
2023-12-14T08:34:43.982Z,97882.52
2023-12-14T08:37:17.398Z,97881.65
2023-12-14T08:39:53.862Z,97887.36
2023-12-14T08:42:29.016Z,97889.91
2023-12-14T08:45:02.505Z,97897.86
2023-12-14T08:47:36.056Z,97904.11
2023-12-14T08:50:11.676Z,97907.84
2023-12-14T08:52:45.231Z,97911.64
2023-12-14T08:55:18.824Z,97913.13
2023-12-14T08:57:52.405Z,97919.38
2023-12-14T09:00:27.303Z,97924.38
2023-12-14T09:03:01.369Z,97931.22
2023-12-14T09:05:35.123Z,97936.07
2023-12-14T09:08:08.921Z,97938.61
2023-12-14T09:10:42.445Z,97938.84
2023-12-14T09:13:16.015Z,97940.14
2023-12-14T09:15:53.501Z,97943.46
2023-12-14T09:18:27.068Z,97947.88
2023-12-14T09:21:00.432Z,97947.37
2023-12-14T09:23:33.789Z,97955.59
2023-12-14T09:26:07.800Z,97965.66
2023-12-14T09:28:41.896Z,97963.37
2023-12-14T09:31:17.289Z,97967.59
2023-12-14T09:33:50.807Z,97964.50
2023-12-14T09:36:25.156Z,97963.52
2023-12-14T09:38:59.568Z,97966.29
2023-12-14T09:41:33.162Z,97964.71
2023-12-14T09:44:08.103Z,97968.61
2023-12-14T09:46:50.172Z,97967.88
2023-12-14T09:49:26.021Z,97971.23
2023-12-14T09:51:59.810Z,97976.73
2023-12-14T09:54:33.880Z,97977.65
2023-12-14T09:57:07.601Z,97982.29
2023-12-14T09:59:44.364Z,97982.02
2023-12-14T10:02:17.773Z,97987.66
2023-12-14T10:04:51.547Z,97984.88
2023-12-14T10:07:26.334Z,97984.27
2023-12-14T10:10:14.492Z,97987.17
2023-12-14T10:12:57.669Z,97995.12
2023-12-14T10:15:31.451Z,97996.38
2023-12-14T10:18:05.377Z,98001.29
2023-12-14T10:20:39.686Z,98002.64
2023-12-14T10:23:13.363Z,98005.96
2023-12-14T10:25:47.376Z,98006.55
2023-12-14T10:28:20.705Z,98010.65
2023-12-14T10:30:54.327Z,98011.52
2023-12-14T10:33:27.797Z,98008.14
2023-12-14T10:36:02.951Z,98010.40
2023-12-14T10:38:39.039Z,98009.62
2023-12-14T10:41:13.741Z,98011.11
2023-12-14T10:43:54.103Z,98012.05
2023-12-14T10:46:37.280Z,98016.27
2023-12-14T10:49:12.383Z,98019.50
2023-12-14T10:51:49.143Z,98021.44
2023-12-14T10:54:23.128Z,98024.96
2023-12-14T10:56:59.385Z,98028.00
2023-12-14T10:59:34.383Z,98029.75
2023-12-14T11:02:13.396Z,98034.84
2023-12-14T11:05:06.797Z,98036.25
2023-12-14T11:07:52.012Z,98041.28
2023-12-14T11:10:29.149Z,98042.52
2023-12-14T11:13:11.186Z,98047.16
2023-12-14T11:15:52.083Z,98050.46
2023-12-14T11:18:32.866Z,98051.27
2023-12-14T11:21:08.188Z,98055.80
2023-12-14T11:23:42.164Z,98057.65
2023-12-14T11:26:29.758Z,98062.02
2023-12-14T11:29:05.242Z,98059.92
2023-12-14T11:31:38.804Z,98067.41
2023-12-14T11:34:13.260Z,98066.61
2023-12-14T11:36:47.199Z,98066.67
2023-12-14T11:39:22.429Z,98068.33
2023-12-14T11:42:08.088Z,98070.82
2023-12-14T11:44:44.633Z,98069.88
2023-12-14T11:47:18.097Z,98072.36
2023-12-14T11:49:51.494Z,98074.54
2023-12-14T11:52:25.381Z,98075.27
2023-12-14T11:54:59.564Z,98075.14
2023-12-14T11:57:35.266Z,98078.44
2023-12-14T12:00:11.898Z,98075.49
2023-12-14T12:02:45.305Z,98079.71
2023-12-14T12:05:20.211Z,98081.45
2023-12-14T12:08:00.749Z,98083.59
2023-12-14T12:10:35.386Z,98084.60
2023-12-14T12:13:13.553Z,98084.19
2023-12-14T12:15:48.009Z,98088.88
2023-12-14T12:18:21.954Z,98095.55
2023-12-14T12:20:55.292Z,98097.59
2023-12-14T12:23:28.912Z,98101.72
2023-12-14T12:26:02.333Z,98109.02
2023-12-14T12:28:36.082Z,98109.90
2023-12-14T12:31:10.196Z,98109.02
2023-12-14T12:33:43.787Z,98106.84
2023-12-14T12:36:17.518Z,98107.60
2023-12-14T12:38:50.878Z,98107.73
2023-12-14T12:41:24.256Z,98112.23
2023-12-14T12:43:57.577Z,98113.52
2023-12-14T12:46:31.269Z,98119.90
2023-12-14T12:49:05.466Z,98122.99
2023-12-14T12:51:38.969Z,98131.52
2023-12-14T12:54:13.777Z,98131.33
2023-12-14T12:56:47.706Z,98133.33
2023-12-14T12:59:21.103Z,98135.19
2023-12-14T13:01:55.337Z,98141.65
2023-12-14T13:04:31.467Z,98145.31
2023-12-14T13:07:05.526Z,98150.40
2023-12-14T13:09:40.575Z,98152.40
2023-12-14T13:12:14.003Z,98159.96
2023-12-14T13:14:47.321Z,98162.40
2023-12-14T13:17:20.939Z,98167.16
2023-12-14T13:19:54.914Z,98165.61
2023-12-14T13:22:31.226Z,98168.05
2023-12-14T13:25:05.212Z,98173.33
2023-12-14T13:27:38.833Z,98172.80
2023-12-14T13:30:18.032Z,98181.31
2023-12-14T13:32:51.499Z,98191.77
2023-12-14T13:35:26.027Z,98199.23
2023-12-14T13:38:01.081Z,98207.26
2023-12-14T13:40:34.465Z,98211.83
2023-12-14T13:43:11.607Z,98216.83
2023-12-14T13:45:45.408Z,98218.86
2023-12-14T13:48:18.814Z,98221.71
2023-12-14T13:50:52.237Z,98232.34
2023-12-14T13:53:25.734Z,98231.13
2023-12-14T13:55:59.358Z,98235.63
2023-12-14T13:58:35.832Z,98239.75
2023-12-14T14:01:12.021Z,98246.22
2023-12-14T14:03:48.139Z,98249.77
2023-12-14T14:06:22.810Z,98254.57
2023-12-14T14:08:56.764Z,98262.70
2023-12-14T14:11:30.182Z,98264.49
2023-12-14T14:14:04.741Z,98271.80
2023-12-14T14:16:38.262Z,98271.14
2023-12-14T14:19:11.731Z,98275.91
2023-12-14T14:21:45.202Z,98276.96
2023-12-14T14:24:18.589Z,98276.59
2023-12-14T14:26:52.204Z,98278.74
2023-12-14T14:29:25.583Z,98285.85
2023-12-14T14:31:59.052Z,98291.78
2023-12-14T14:34:32.373Z,98295.39
2023-12-14T14:37:06.665Z,98300.54
2023-12-14T14:39:41.703Z,98302.45
2023-12-14T14:42:16.252Z,98305.77
2023-12-14T14:44:49.636Z,98308.08
2023-12-14T14:47:24.947Z,98312.17
2023-12-14T14:50:04.349Z,98319.78
2023-12-14T14:52:38.479Z,98322.92
2023-12-14T14:55:12.742Z,98317.62
2023-12-14T14:57:46.247Z,98321.89
2023-12-14T15:00:21.485Z,98321.92
2023-12-14T15:02:54.957Z,98325.25
2023-12-14T15:05:28.486Z,98328.30
2023-12-14T15:08:04.526Z,98335.99
2023-12-14T15:10:37.933Z,98341.45
2023-12-14T15:13:11.335Z,98341.45
2023-12-14T15:15:44.745Z,98346.73
2023-12-14T15:18:18.429Z,98348.20
2023-12-14T15:20:53.911Z,98349.50
2023-12-14T15:23:27.389Z,98354.02
2023-12-14T15:26:00.897Z,98355.92
2023-12-14T15:28:34.388Z,98355.02
2023-12-14T15:31:08.171Z,98359.65
2023-12-14T15:33:41.815Z,98362.81
2023-12-14T15:36:15.429Z,98365.23
2023-12-14T15:38:48.739Z,98374.41
2023-12-14T15:41:22.126Z,98377.44
2023-12-14T15:43:55.522Z,98382.12
2023-12-14T15:46:28.970Z,98389.92
2023-12-14T15:49:02.802Z,98392.77
2023-12-14T15:51:36.239Z,98391.84
2023-12-14T15:54:09.923Z,98396.36
2023-12-14T15:56:43.274Z,98403.09
2023-12-14T15:59:16.599Z,98397.89
2023-12-14T16:01:50.267Z,98400.14
2023-12-14T16:04:23.666Z,98404.88
2023-12-14T16:06:57.178Z,98402.74
2023-12-14T16:09:30.568Z,98404.31
2023-12-14T16:12:05.651Z,98413.16
2023-12-14T16:14:38.963Z,98419.45
2023-12-14T16:17:12.400Z,98429.69
2023-12-14T16:19:48.619Z,98434.30
2023-12-14T16:22:22.815Z,98435.33
2023-12-14T16:24:56.380Z,98439.86
2023-12-14T16:27:29.829Z,98443.39
2023-12-14T16:30:03.231Z,98450.73
2023-12-14T16:32:36.845Z,98451.56
2023-12-14T16:35:11.826Z,98453.95
2023-12-14T16:37:45.359Z,98462.44
2023-12-14T16:40:20.971Z,98466.41
2023-12-14T16:42:54.323Z,98467.81
2023-12-14T16:45:27.641Z,98473.53
2023-12-14T16:48:01.600Z,98474.65
2023-12-14T16:50:35.056Z,98482.46
2023-12-14T16:53:11.582Z,98485.64
2023-12-14T16:55:45.447Z,98488.79
2023-12-14T16:58:19.660Z,98494.36
2023-12-14T17:00:54.644Z,98498.92
2023-12-14T17:03:28.026Z,98500.95
2023-12-14T17:06:01.873Z,98500.84
2023-12-14T17:08:35.176Z,98507.52
2023-12-14T17:11:10.827Z,98517.61
2023-12-14T17:13:44.430Z,98516.63
2023-12-14T17:16:19.038Z,98522.61
2023-12-14T17:18:52.438Z,98524.43
2023-12-14T17:21:27.965Z,98534.05
2023-12-14T17:24:01.984Z,98540.77
2023-12-14T17:26:35.344Z,98539.08
2023-12-14T17:29:10.578Z,98544.02
2023-12-14T17:31:44.731Z,98544.23
2023-12-14T17:34:19.518Z,98549.36
2023-12-14T17:36:53.087Z,98555.17
2023-12-14T17:39:26.425Z,98555.34
2023-12-14T17:42:00.404Z,98560.41
2023-12-14T17:44:34.145Z,98561.68
2023-12-14T17:47:07.907Z,98567.99
2023-12-14T17:49:41.369Z,98568.57
2023-12-14T17:52:15.422Z,98571.20
2023-12-14T17:54:50.408Z,98572.66
2023-12-14T17:57:23.790Z,98576.80
2023-12-14T17:59:57.380Z,98578.16
2023-12-14T18:02:30.805Z,98583.34
2023-12-14T18:05:04.316Z,98589.71
2023-12-14T18:07:38.481Z,98592.29
2023-12-14T18:10:15.116Z,98597.19
2023-12-14T18:12:50.810Z,98600.80
2023-12-14T18:15:24.703Z,98608.27
2023-12-14T18:17:58.380Z,98614.39
2023-12-14T18:20:31.851Z,98615.54
2023-12-14T18:23:05.505Z,98619.18
2023-12-14T18:25:38.916Z,98624.48
2023-12-14T18:28:12.241Z,98626.50
2023-12-14T18:30:45.988Z,98630.79
2023-12-14T18:33:19.449Z,98636.39
2023-12-14T18:35:52.868Z,98637.48
2023-12-14T18:38:26.702Z,98636.96
2023-12-14T18:41:00.132Z,98639.83
2023-12-14T18:43:33.510Z,98643.33
2023-12-14T18:46:07.877Z,98651.76
2023-12-14T18:48:41.361Z,98653.48
2023-12-14T18:51:14.699Z,98655.36
2023-12-14T18:53:48.268Z,98663.86
2023-12-14T18:56:21.775Z,98666.46
2023-12-14T18:58:55.099Z,98670.80
2023-12-14T19:01:28.416Z,98676.02
2023-12-14T19:04:02.573Z,98680.82
2023-12-14T19:06:36.312Z,98682.27
2023-12-14T19:09:09.629Z,98689.86
2023-12-14T19:11:42.965Z,98692.82
2023-12-14T19:14:18.099Z,98695.76
2023-12-14T19:16:52.428Z,98707.03
2023-12-14T19:19:28.799Z,98706.95
2023-12-14T19:22:02.526Z,98715.30
2023-12-14T19:24:35.862Z,98719.87
2023-12-14T19:27:09.648Z,98724.27
2023-12-14T19:29:43.084Z,98729.16
2023-12-14T19:32:16.377Z,98731.20
2023-12-14T19:34:49.824Z,98737.36
2023-12-14T19:37:23.260Z,98736.94
2023-12-14T19:39:56.831Z,98743.09
2023-12-14T19:42:31.804Z,98747.39
2023-12-14T19:45:05.644Z,98747.79
2023-12-14T19:47:40.938Z,98749.81
2023-12-14T19:50:15.144Z,98753.80
2023-12-14T19:55:38.976Z,98760.47
2023-12-14T19:58:12.289Z,98765.86
2023-12-14T20:00:46.061Z,98771.34
2023-12-14T20:03:19.502Z,98776.21
2023-12-14T20:05:52.951Z,98779.16
2023-12-14T20:08:26.325Z,98781.73
2023-12-14T20:10:59.964Z,98786.41
2023-12-14T20:13:33.676Z,98788.30
2023-12-14T20:16:10.513Z,98787.91
2023-12-14T20:18:44.216Z,98794.08
2023-12-14T20:21:17.798Z,98796.48
2023-12-14T20:23:51.239Z,98803.05
2023-12-14T20:26:31.669Z,98806.90
2023-12-14T20:29:06.114Z,98804.82
2023-12-14T20:31:39.467Z,98803.30
2023-12-14T20:34:12.866Z,98810.41
2023-12-14T20:36:46.282Z,98811.96
2023-12-14T20:39:19.664Z,98817.63
2023-12-14T20:41:52.959Z,98819.80
2023-12-14T20:44:26.345Z,98823.53
2023-12-14T20:46:59.789Z,98830.42
2023-12-14T20:49:33.130Z,98832.05
2023-12-14T20:52:07.126Z,98831.98
2023-12-14T20:54:40.443Z,98834.63
2023-12-14T20:57:14.723Z,98837.96
2023-12-14T20:59:51.461Z,98843.92
2023-12-14T21:02:26.277Z,98848.39
2023-12-14T21:04:59.628Z,98854.13
2023-12-14T21:07:33.758Z,98855.33
2023-12-14T21:10:08.355Z,98861.98
2023-12-14T21:12:42.073Z,98867.33
2023-12-14T21:15:15.603Z,98869.83
2023-12-14T21:17:49.050Z,98875.02
2023-12-14T21:20:23.899Z,98879.96
2023-12-14T21:22:57.445Z,98882.77
2023-12-14T21:25:41.727Z,98887.52
2023-12-14T21:28:16.412Z,98884.45
2023-12-14T21:30:51.409Z,98887.91
2023-12-14T21:33:25.098Z,98888.69
2023-12-14T21:35:58.496Z,98889.63
2023-12-14T21:38:33.473Z,98893.90
2023-12-14T21:41:07.441Z,98895.35
2023-12-14T21:43:40.758Z,98902.44
2023-12-14T21:46:14.330Z,98907.14
2023-12-14T21:48:47.786Z,98907.77
2023-12-14T21:51:21.306Z,98910.97
2023-12-14T21:53:55.014Z,98911.81
2023-12-14T21:56:28.530Z,98916.48
2023-12-14T21:59:01.879Z,98918.39
2023-12-14T22:01:35.369Z,98926.83
2023-12-14T22:04:08.890Z,98930.19
2023-12-14T22:06:42.283Z,98933.58
2023-12-14T22:09:16.025Z,98933.92
2023-12-14T22:11:49.373Z,98937.62
2023-12-14T22:14:22.819Z,98945.80
2023-12-14T22:16:57.026Z,98948.60
2023-12-14T22:19:30.358Z,98954.98
2023-12-14T22:22:04.134Z,98962.27
2023-12-14T22:24:37.770Z,98967.95
2023-12-14T22:27:12.530Z,98974.13
2023-12-14T22:29:45.822Z,98972.05
2023-12-14T22:32:19.281Z,98982.90
2023-12-14T22:34:52.703Z,98988.79
2023-12-14T22:37:26.108Z,98991.90
2023-12-14T22:39:59.535Z,98994.33
2023-12-14T22:42:33.056Z,98999.18
2023-12-14T22:45:08.939Z,99004.76
2023-12-14T22:47:43.312Z,99009.77
2023-12-14T22:50:17.661Z,99012.92
2023-12-14T22:52:51.115Z,99015.20
2023-12-14T22:55:25.644Z,99026.23
2023-12-14T22:57:59.022Z,99034.61
2023-12-14T23:00:33.248Z,99035.77
2023-12-14T23:03:06.592Z,99034.29
2023-12-14T23:05:41.585Z,99041.73
2023-12-14T23:08:14.976Z,99042.23
2023-12-14T23:10:48.489Z,99046.71
2023-12-14T23:13:21.849Z,99051.11
2023-12-14T23:15:55.405Z,99051.45
2023-12-14T23:18:28.791Z,99057.52
2023-12-14T23:21:02.632Z,99063.33
2023-12-14T23:23:36.013Z,99066.55
2023-12-14T23:26:09.802Z,99064.92
2023-12-14T23:28:43.168Z,99067.55
2023-12-14T23:31:16.664Z,99070.59
2023-12-14T23:33:50.155Z,99074.76
2023-12-14T23:36:23.460Z,99082.80
2023-12-14T23:38:56.732Z,99081.32
2023-12-14T23:41:30.146Z,99087.21
2023-12-14T23:44:03.641Z,99094.48
2023-12-14T23:46:37.141Z,99100.96
2023-12-14T23:49:10.619Z,99103.47
2023-12-14T23:51:43.950Z,99108.39
2023-12-14T23:54:17.323Z,99114.19
2023-12-14T23:56:50.748Z,99117.02
2023-12-14T23:59:24.057Z,99114.50
